createdAt,value
2018-12-05T00:03:19.061Z,19.71
2018-12-05T00:09:14.108Z,19.22
2018-12-05T00:15:09.081Z,20.36
2018-12-05T00:21:04.072Z,20.85
2018-12-05T00:26:59.143Z,23.39
2018-12-05T00:32:54.081Z,25.33
2018-12-05T00:38:49.100Z,18.91
2018-12-05T00:44:44.107Z,21.75
2018-12-05T00:50:39.093Z,20
2018-12-05T00:56:34.130Z,18.48
2018-12-05T01:02:29.097Z,17.85
2018-12-05T01:08:24.145Z,17.72
2018-12-05T01:14:19.145Z,17.28
2018-12-05T01:20:14.128Z,11.26
2018-12-05T01:26:09.131Z,11.19
2018-12-05T01:32:04.152Z,11.51
2018-12-05T01:37:59.136Z,11.58
2018-12-05T01:43:54.122Z,12.92
2018-12-05T01:49:49.133Z,18.49
2018-12-05T01:55:44.124Z,15.47
2018-12-05T02:01:39.133Z,12.5
2018-12-05T02:07:34.149Z,11.42
2018-12-05T02:13:29.143Z,11.01
2018-12-05T02:19:24.161Z,10.98
2018-12-05T02:25:19.145Z,11.8
2018-12-05T02:31:14.184Z,9.95
2018-12-05T02:37:09.185Z,9.68
2018-12-05T02:43:04.177Z,9.26
2018-12-05T02:48:59.159Z,8.83
2018-12-05T02:54:54.179Z,14.28
2018-12-05T03:00:49.165Z,9.92
2018-12-05T03:06:44.208Z,8.52
2018-12-05T03:12:39.210Z,8.89
2018-12-05T03:18:34.251Z,9.18
2018-12-05T03:24:29.177Z,8.47
2018-12-05T03:30:24.196Z,6.88
2018-12-05T03:36:19.206Z,8.62
2018-12-05T03:42:14.189Z,8.92
2018-12-05T03:48:09.212Z,9.57
2018-12-05T03:54:04.185Z,8.04
2018-12-05T03:59:59.213Z,7.03
2018-12-05T04:05:54.252Z,7.95
2018-12-05T04:11:49.198Z,7.32
2018-12-05T04:17:44.230Z,7.25
2018-12-05T04:23:39.208Z,7.46
2018-12-05T04:29:34.239Z,8.39
2018-12-05T04:35:29.211Z,8.27
2018-12-05T04:41:24.221Z,6.8
2018-12-05T04:47:19.234Z,7.03
2018-12-05T04:53:14.234Z,7.46
2018-12-05T04:59:09.281Z,6.87
2018-12-05T05:05:04.226Z,7.61
2018-12-05T05:10:59.244Z,7.99
2018-12-05T05:16:54.263Z,7.39
2018-12-05T05:22:49.241Z,8.07
2018-12-05T05:28:44.250Z,8.03
2018-12-05T05:34:39.284Z,9.38
2018-12-05T05:40:34.264Z,9.07
2018-12-05T05:46:29.272Z,8.88
2018-12-05T05:52:24.249Z,8.83
2018-12-05T05:58:19.279Z,8.11
2018-12-05T06:04:14.277Z,6.83
2018-12-05T06:10:09.300Z,7.16
2018-12-05T06:16:04.261Z,8.3
2018-12-05T06:21:59.263Z,7.03
2018-12-05T06:27:54.313Z,23.83
2018-12-05T06:33:49.271Z,16.09
2018-12-05T06:39:44.288Z,7.5
2018-12-05T06:45:39.319Z,7.02
2018-12-05T06:51:34.273Z,6.27
2018-12-05T06:57:29.287Z,9.75
2018-12-05T07:03:24.368Z,7.77
2018-12-05T07:09:19.318Z,8.25
2018-12-05T07:15:14.298Z,13.81
2018-12-05T07:21:09.348Z,6.47
2018-12-05T07:27:04.317Z,7.18
2018-12-05T07:32:59.310Z,8.01
2018-12-05T07:38:54.312Z,7.99
2018-12-05T07:44:49.333Z,8.64
2018-12-05T07:50:44.331Z,7.53
2018-12-05T07:56:39.341Z,10.94
2018-12-05T08:02:34.318Z,10.71
2018-12-05T08:08:29.321Z,9.27
2018-12-05T08:14:24.329Z,10.87
2018-12-05T08:20:19.374Z,10.26
2018-12-05T08:26:14.353Z,10.39
2018-12-05T08:32:09.350Z,9.35
2018-12-05T08:38:04.343Z,11.15
2018-12-05T08:43:59.346Z,9.8
2018-12-05T08:49:54.345Z,10.81
2018-12-05T08:55:49.366Z,11.26
2018-12-05T09:01:44.345Z,11.12
2018-12-05T09:07:39.376Z,15.15
2018-12-05T09:13:34.410Z,18.69
2018-12-05T09:19:29.417Z,15.93
2018-12-05T09:25:24.372Z,15.11
2018-12-05T09:31:19.388Z,15.56
2018-12-05T09:37:14.390Z,16.44
2018-12-05T09:43:09.388Z,17.29
2018-12-05T09:49:04.378Z,16.67
2018-12-05T09:54:59.376Z,16.55
2018-12-05T10:00:54.395Z,16.2
2018-12-05T10:06:49.404Z,16.45
2018-12-05T10:12:44.422Z,14.85
2018-12-05T10:18:39.398Z,14.62
2018-12-05T10:24:34.415Z,16.23
2018-12-05T10:30:29.397Z,17.24
2018-12-05T10:36:24.416Z,16.38
2018-12-05T10:42:19.442Z,16.15
2018-12-05T10:48:14.441Z,20.46
2018-12-05T10:54:09.420Z,16.69
2018-12-05T11:00:04.477Z,16.3
2018-12-05T11:05:59.478Z,16.15
2018-12-05T11:11:54.460Z,16.15
2018-12-05T11:17:49.424Z,18.39
2018-12-05T11:23:44.502Z,19.32
2018-12-05T11:29:39.432Z,19.34
2018-12-05T11:35:36.164Z,24.47
2018-12-05T11:41:29.443Z,21.94
2018-12-05T11:47:24.454Z,23.24
2018-12-05T11:53:19.470Z,24.21
2018-12-05T11:59:14.480Z,23.7
2018-12-05T12:05:09.491Z,23.44
2018-12-05T12:11:04.458Z,24.76
2018-12-05T12:16:59.454Z,25.13
2018-12-05T12:22:54.478Z,24.46
2018-12-05T12:28:49.452Z,31.5
2018-12-05T12:34:44.499Z,30.21
2018-12-05T12:40:39.517Z,28.47
2018-12-05T12:46:34.464Z,31.48
2018-12-05T12:52:29.480Z,33.3
2018-12-05T12:58:24.480Z,32.83
2018-12-05T13:04:19.472Z,34.36
2018-12-05T13:10:14.494Z,27.45
2018-12-05T13:16:09.475Z,24.65
2018-12-05T13:22:04.527Z,24.67
2018-12-05T13:27:59.503Z,26.19
2018-12-05T13:33:54.493Z,29.04
2018-12-05T13:45:44.570Z,28.03
2018-12-05T13:45:44.589Z,30.21
2018-12-05T13:51:39.487Z,26.74
2018-12-05T13:57:34.505Z,26.85
2018-12-05T14:03:29.512Z,28
2018-12-05T14:09:24.549Z,33.06
2018-12-05T14:21:14.528Z,34.3
2018-12-05T14:21:14.537Z,32.94
2018-12-05T14:27:09.534Z,27.68
2018-12-05T14:33:04.597Z,25.68
2018-12-05T14:38:59.538Z,23.84
2018-12-05T14:44:54.559Z,25.48
2018-12-05T14:50:49.587Z,27.62
2018-12-05T14:56:44.532Z,26.23
2018-12-05T15:02:39.549Z,24.99
2018-12-05T15:08:34.565Z,24.01
2018-12-05T15:14:29.555Z,25.06
2018-12-05T15:20:24.560Z,24.93
2018-12-05T15:26:19.559Z,23.64
2018-12-05T15:32:14.551Z,26.71
2018-12-05T15:38:09.565Z,26.48
2018-12-05T15:44:04.575Z,27.64
2018-12-05T15:49:59.596Z,32.18
2018-12-05T15:55:54.616Z,66.85
2018-12-05T16:01:49.581Z,33.18
2018-12-05T16:07:44.586Z,23.14
2018-12-05T16:13:39.570Z,23.04
2018-12-05T16:19:34.597Z,20.41
2018-12-05T16:25:29.602Z,51.67
2018-12-05T16:31:24.581Z,32.6
2018-12-05T16:37:19.608Z,40.7
2018-12-05T16:43:14.578Z,36.6
2018-12-05T16:49:09.598Z,19.04
2018-12-05T16:55:04.624Z,19.33
2018-12-05T17:00:59.599Z,18.99
2018-12-05T17:06:54.598Z,18.39
2018-12-05T17:12:49.648Z,19.25
2018-12-05T17:18:44.608Z,16.68
2018-12-05T17:24:39.616Z,16.21
2018-12-05T17:30:34.628Z,18.09
2018-12-05T17:36:29.631Z,14.01
2018-12-05T17:42:24.618Z,20.56
2018-12-05T17:48:19.666Z,19.39
2018-12-05T17:54:15.141Z,15.15
2018-12-05T18:00:09.669Z,17.57
2018-12-05T18:06:04.696Z,21.16
2018-12-05T18:11:59.643Z,23.63
2018-12-05T18:17:54.646Z,20.09
2018-12-05T18:23:49.665Z,23.95
2018-12-05T18:29:44.678Z,26.91
2018-12-05T18:35:39.642Z,28.91
2018-12-05T18:41:34.663Z,32.59
2018-12-05T18:47:29.708Z,27.95
2018-12-05T18:53:24.660Z,19.78
2018-12-05T18:59:19.710Z,21.05
2018-12-05T19:05:14.667Z,18.73
2018-12-05T19:11:09.673Z,15.66
2018-12-05T19:17:04.676Z,23.01
2018-12-05T19:22:59.688Z,25.96
2018-12-05T19:28:54.683Z,28.75
2018-12-05T19:34:49.682Z,25.93
2018-12-05T19:40:44.689Z,20.91
2018-12-05T19:46:39.716Z,20.59
2018-12-05T19:52:34.727Z,25.08
2018-12-05T19:58:29.686Z,25.88
2018-12-05T20:04:24.700Z,32.26
2018-12-05T20:10:19.718Z,36.3
2018-12-05T20:16:14.725Z,27.77
2018-12-05T20:22:09.709Z,29.91
2018-12-05T20:28:04.761Z,29.4
2018-12-05T20:33:59.735Z,24.23
2018-12-05T20:39:54.720Z,19.3
2018-12-05T20:45:49.741Z,18.49
2018-12-05T20:51:44.716Z,21.42
2018-12-05T20:57:39.729Z,33.98
2018-12-05T21:03:34.730Z,35.09
2018-12-05T21:09:29.738Z,32.07
2018-12-05T21:15:24.753Z,18.1
2018-12-05T21:21:19.807Z,20.86
2018-12-05T21:27:14.778Z,21.38
2018-12-05T21:33:09.739Z,21.03
2018-12-05T21:39:04.758Z,20.77
2018-12-05T21:44:59.758Z,15.11
2018-12-05T21:50:54.789Z,14.42
2018-12-05T21:56:49.754Z,13.97
2018-12-05T22:02:44.739Z,11.5
2018-12-05T22:08:39.765Z,10.76
2018-12-05T22:14:34.813Z,12.95
2018-12-05T22:20:29.848Z,18.46
2018-12-05T22:26:24.840Z,21.43
2018-12-05T22:32:19.812Z,24.11
2018-12-05T22:38:14.773Z,26.5
2018-12-05T22:44:09.791Z,29.04
2018-12-05T22:50:04.758Z,29.54
2018-12-05T22:55:59.795Z,28.27
2018-12-05T23:01:54.774Z,30.57
2018-12-05T23:07:49.793Z,31.28
2018-12-05T23:13:44.791Z,30.93
2018-12-05T23:19:39.781Z,34.79
2018-12-05T23:25:34.850Z,40.65
2018-12-05T23:31:29.799Z,25.34
2018-12-05T23:37:24.829Z,26.88
2018-12-05T23:43:19.827Z,27.35
2018-12-05T23:49:14.810Z,24.87
2018-12-05T23:55:09.917Z,25.66
